sensor_id;sensor_type;location;lat;lon;timestamp;pressure;altitude;pressure_sealevel;temperature;humidity
12785;BME280;6456;42.680;23.260;2023-05-14T00:00:59;94988.09;;;15.09;72.29
12785;BME280;6456;42.680;23.260;2023-05-14T00:03:30;95020.59;;;15.39;73.13
12785;BME280;6456;42.680;23.260;2023-05-14T00:05:57;95035.13;;;15.49;76.16
12785;BME280;6456;42.680;23.260;2023-05-14T00:08:24;95001.13;;;15.22;77.46
12785;BME280;6456;42.680;23.260;2023-05-14T00:10:51;95068.22;;;15.58;77.58
12785;BME280;6456;42.680;23.260;2023-05-14T00:13:19;95013.31;;;15.12;74.48
12785;BME280;6456;42.680;23.260;2023-05-14T00:15:47;95050.09;;;15.43;73.67
12785;BME280;6456;42.680;23.260;2023-05-14T00:18:14;94971.28;;;14.92;73.45
12785;BME280;6456;42.680;23.260;2023-05-14T00:20:43;95050.56;;;15.40;74.00
12785;BME280;6456;42.680;23.260;2023-05-14T00:23:11;94993.16;;;15.11;73.86
12785;BME280;6456;42.680;23.260;2023-05-14T00:25:38;95016.19;;;15.33;72.83
12785;BME280;6456;42.680;23.260;2023-05-14T00:28:05;95009.28;;;15.32;72.70
12785;BME280;6456;42.680;23.260;2023-05-14T00:30:31;95034.41;;;15.41;73.22
12785;BME280;6456;42.680;23.260;2023-05-14T00:32:59;94959.28;;;15.01;73.38
12785;BME280;6456;42.680;23.260;2023-05-14T00:35:26;94990.06;;;15.25;73.02
12785;BME280;6456;42.680;23.260;2023-05-14T00:37:54;94953.31;;;14.94;73.27
12785;BME280;6456;42.680;23.260;2023-05-14T00:40:25;94982.53;;;15.11;73.73
12785;BME280;6456;42.680;23.260;2023-05-14T00:42:52;95027.41;;;15.47;74.15
12785;BME280;6456;42.680;23.260;2023-05-14T00:45:19;94951.47;;;14.95;74.88
12785;BME280;6456;42.680;23.260;2023-05-14T00:47:46;95021.72;;;15.43;76.64
12785;BME280;6456;42.680;23.260;2023-05-14T00:50:14;94965.53;;;14.95;77.66
12785;BME280;6456;42.680;23.260;2023-05-14T00:52:41;94978.50;;;15.08;75.67
12785;BME280;6456;42.680;23.260;2023-05-14T00:55:11;94935.66;;;14.76;73.21
12785;BME280;6456;42.680;23.260;2023-05-14T00:57:40;94903.91;;;14.65;73.25
12785;BME280;6456;42.680;23.260;2023-05-14T01:00:08;94997.75;;;15.27;72.23
12785;BME280;6456;42.680;23.260;2023-05-14T01:02:35;95001.69;;;15.24;72.04
12785;BME280;6456;42.680;23.260;2023-05-14T01:05:02;95008.25;;;15.22;72.08
12785;BME280;6456;42.680;23.260;2023-05-14T01:07:38;95022.53;;;15.21;71.89
12785;BME280;6456;42.680;23.260;2023-05-14T01:10:14;94959.50;;;14.76;71.36
12785;BME280;6456;42.680;23.260;2023-05-14T01:12:48;94963.78;;;14.77;71.91
12785;BME280;6456;42.680;23.260;2023-05-14T01:15:20;94924.16;;;14.59;72.13
12785;BME280;6456;42.680;23.260;2023-05-14T01:17:52;94925.66;;;14.55;72.56
12785;BME280;6456;42.680;23.260;2023-05-14T01:20:20;94989.59;;;14.94;71.78
12785;BME280;6456;42.680;23.260;2023-05-14T01:22:48;94964.13;;;14.69;71.55
12785;BME280;6456;42.680;23.260;2023-05-14T01:25:15;94999.13;;;14.83;71.33
12785;BME280;6456;42.680;23.260;2023-05-14T01:27:58;95016.41;;;14.86;71.41
12785;BME280;6456;42.680;23.260;2023-05-14T01:30:30;94954.31;;;14.47;75.03
12785;BME280;6456;42.680;23.260;2023-05-14T01:32:59;95029.22;;;14.89;71.41
12785;BME280;6456;42.680;23.260;2023-05-14T01:35:32;94968.13;;;14.49;71.36
12785;BME280;6456;42.680;23.260;2023-05-14T01:38:03;95003.84;;;14.69;70.60
12785;BME280;6456;42.680;23.260;2023-05-14T01:40:31;95000.28;;;14.64;70.54
12785;BME280;6456;42.680;23.260;2023-05-14T01:42:59;95036.94;;;14.90;70.64
12785;BME280;6456;42.680;23.260;2023-05-14T01:45:26;95032.34;;;14.97;70.53
12785;BME280;6456;42.680;23.260;2023-05-14T01:47:53;94985.19;;;14.64;70.31
12785;BME280;6456;42.680;23.260;2023-05-14T01:50:20;95031.53;;;14.97;70.17
12785;BME280;6456;42.680;23.260;2023-05-14T01:52:47;95029.56;;;14.92;70.78
12785;BME280;6456;42.680;23.260;2023-05-14T01:55:17;94985.88;;;14.60;71.81
12785;BME280;6456;42.680;23.260;2023-05-14T01:57:43;94995.91;;;14.58;73.07
12785;BME280;6456;42.680;23.260;2023-05-14T02:00:11;95010.53;;;14.72;72.57
12785;BME280;6456;42.680;23.260;2023-05-14T02:02:38;94987.97;;;14.58;72.33
12785;BME280;6456;42.680;23.260;2023-05-14T02:05:06;94988.53;;;14.60;72.50
12785;BME280;6456;42.680;23.260;2023-05-14T02:07:33;94974.47;;;14.48;71.66
12785;BME280;6456;42.680;23.260;2023-05-14T02:10:00;95044.91;;;14.90;72.33
12785;BME280;6456;42.680;23.260;2023-05-14T02:12:28;95008.78;;;14.66;72.13
12785;BME280;6456;42.680;23.260;2023-05-14T02:14:55;95012.50;;;14.65;75.22
12785;BME280;6456;42.680;23.260;2023-05-14T02:17:24;94996.00;;;14.63;76.54
12785;BME280;6456;42.680;23.260;2023-05-14T02:19:51;94963.16;;;14.41;73.60
12785;BME280;6456;42.680;23.260;2023-05-14T02:22:18;94998.63;;;14.63;73.51
12785;BME280;6456;42.680;23.260;2023-05-14T02:24:45;95015.25;;;14.70;74.68
12785;BME280;6456;42.680;23.260;2023-05-14T02:27:14;94963.16;;;14.41;75.32
12785;BME280;6456;42.680;23.260;2023-05-14T02:29:42;94990.13;;;14.49;76.15
12785;BME280;6456;42.680;23.260;2023-05-14T02:32:09;94927.50;;;14.13;75.38
12785;BME280;6456;42.680;23.260;2023-05-14T02:34:36;95054.69;;;14.90;75.78
12785;BME280;6456;42.680;23.260;2023-05-14T02:37:03;95006.94;;;14.55;76.31
12785;BME280;6456;42.680;23.260;2023-05-14T02:39:30;95013.06;;;14.55;76.20
12785;BME280;6456;42.680;23.260;2023-05-14T02:41:57;95053.59;;;14.67;75.85
12785;BME280;6456;42.680;23.260;2023-05-14T02:44:24;95030.19;;;14.53;75.77
12785;BME280;6456;42.680;23.260;2023-05-14T02:46:52;95079.22;;;14.85;75.82
12785;BME280;6456;42.680;23.260;2023-05-14T02:49:19;95076.66;;;14.78;76.73
12785;BME280;6456;42.680;23.260;2023-05-14T02:51:46;94998.41;;;14.23;76.85
12785;BME280;6456;42.680;23.260;2023-05-14T02:54:13;95084.59;;;14.78;76.60
12785;BME280;6456;42.680;23.260;2023-05-14T02:56:40;95077.91;;;14.76;76.41
12785;BME280;6456;42.680;23.260;2023-05-14T02:59:07;95013.31;;;14.36;75.98
12785;BME280;6456;42.680;23.260;2023-05-14T03:01:34;95091.28;;;14.81;75.65
12785;BME280;6456;42.680;23.260;2023-05-14T03:04:03;95064.41;;;14.66;75.94
12785;BME280;6456;42.680;23.260;2023-05-14T03:06:30;95079.53;;;14.77;76.20
12785;BME280;6456;42.680;23.260;2023-05-14T03:09:00;95052.28;;;14.58;75.00
12785;BME280;6456;42.680;23.260;2023-05-14T03:11:27;94984.59;;;14.21;73.67
12785;BME280;6456;42.680;23.260;2023-05-14T03:14:04;94946.31;;;13.94;74.71
12785;BME280;6456;42.680;23.260;2023-05-14T03:16:30;95053.56;;;14.56;74.60
12785;BME280;6456;42.680;23.260;2023-05-14T03:18:57;94939.81;;;13.78;74.75
12785;BME280;6456;42.680;23.260;2023-05-14T03:21:26;95056.19;;;14.56;75.86
12785;BME280;6456;42.680;23.260;2023-05-14T03:23:52;95046.22;;;14.58;76.39
12785;BME280;6456;42.680;23.260;2023-05-14T03:26:19;94969.81;;;14.02;78.39
12785;BME280;6456;42.680;23.260;2023-05-14T03:28:46;95067.28;;;14.53;78.90
12785;BME280;6456;42.680;23.260;2023-05-14T03:31:13;95062.75;;;14.53;80.66
12785;BME280;6456;42.680;23.260;2023-05-14T03:33:40;95067.72;;;14.50;82.69
12785;BME280;6456;42.680;23.260;2023-05-14T03:36:07;95071.38;;;14.49;82.35
12785;BME280;6456;42.680;23.260;2023-05-14T03:38:35;95075.97;;;14.42;82.36
12785;BME280;6456;42.680;23.260;2023-05-14T03:41:02;94932.00;;;13.54;84.13
12785;BME280;6456;42.680;23.260;2023-05-14T03:43:29;95056.72;;;14.35;83.74
12785;BME280;6456;42.680;23.260;2023-05-14T03:45:56;95057.81;;;14.27;84.31
12785;BME280;6456;42.680;23.260;2023-05-14T03:48:23;95012.97;;;14.02;84.73
12785;BME280;6456;42.680;23.260;2023-05-14T03:50:50;95061.84;;;14.30;85.00
12785;BME280;6456;42.680;23.260;2023-05-14T03:53:17;95049.81;;;14.15;85.75
12785;BME280;6456;42.680;23.260;2023-05-14T03:55:45;95065.97;;;14.26;86.50
12785;BME280;6456;42.680;23.260;2023-05-14T03:58:11;95011.50;;;13.88;86.28
12785;BME280;6456;42.680;23.260;2023-05-14T04:00:39;94997.66;;;13.75;85.94
12785;BME280;6456;42.680;23.260;2023-05-14T04:03:06;94967.63;;;13.51;86.39
12785;BME280;6456;42.680;23.260;2023-05-14T04:05:33;95059.63;;;14.15;86.66
12785;BME280;6456;42.680;23.260;2023-05-14T04:08:00;95081.84;;;14.26;86.24
12785;BME280;6456;42.680;23.260;2023-05-14T04:10:27;95074.50;;;14.28;86.88
12785;BME280;6456;42.680;23.260;2023-05-14T04:12:58;95071.72;;;14.23;87.17
12785;BME280;6456;42.680;23.260;2023-05-14T04:15:25;95066.06;;;14.19;85.93
12785;BME280;6456;42.680;23.260;2023-05-14T04:17:52;95023.13;;;13.87;84.21
12785;BME280;6456;42.680;23.260;2023-05-14T04:20:21;95063.78;;;14.23;86.68
12785;BME280;6456;42.680;23.260;2023-05-14T04:22:48;94975.41;;;13.64;88.03
12785;BME280;6456;42.680;23.260;2023-05-14T04:25:15;95044.16;;;14.12;88.43
12785;BME280;6456;42.680;23.260;2023-05-14T04:27:42;95044.50;;;14.15;88.19
12785;BME280;6456;42.680;23.260;2023-05-14T04:30:11;95105.22;;;14.47;88.24
12785;BME280;6456;42.680;23.260;2023-05-14T04:32:38;95021.41;;;13.93;89.40
12785;BME280;6456;42.680;23.260;2023-05-14T04:35:07;95057.53;;;14.17;90.90
12785;BME280;6456;42.680;23.260;2023-05-14T04:37:34;95051.31;;;14.11;90.17
12785;BME280;6456;42.680;23.260;2023-05-14T04:40:03;95007.91;;;13.83;91.58
12785;BME280;6456;42.680;23.260;2023-05-14T04:42:32;95111.81;;;14.56;92.80
12785;BME280;6456;42.680;23.260;2023-05-14T04:44:59;95111.69;;;14.51;91.95
12785;BME280;6456;42.680;23.260;2023-05-14T04:47:27;95129.91;;;14.59;91.52
12785;BME280;6456;42.680;23.260;2023-05-14T04:49:54;95097.59;;;14.39;94.12
12785;BME280;6456;42.680;23.260;2023-05-14T04:52:21;95008.81;;;13.77;93.00
12785;BME280;6456;42.680;23.260;2023-05-14T04:54:48;95027.75;;;13.74;93.81
12785;BME280;6456;42.680;23.260;2023-05-14T04:57:15;95148.75;;;14.51;96.35
12785;BME280;6456;42.680;23.260;2023-05-14T04:59:42;95155.16;;;14.43;99.53
12785;BME280;6456;42.680;23.260;2023-05-14T05:02:09;95150.53;;;14.39;99.54
12785;BME280;6456;42.680;23.260;2023-05-14T05:04:37;95147.75;;;14.34;100.00
12785;BME280;6456;42.680;23.260;2023-05-14T05:07:04;95155.84;;;14.39;100.00
12785;BME280;6456;42.680;23.260;2023-05-14T05:09:31;95172.44;;;14.46;100.00
12785;BME280;6456;42.680;23.260;2023-05-14T05:11:58;95172.91;;;14.43;100.00
12785;BME280;6456;42.680;23.260;2023-05-14T05:14:25;95173.56;;;14.38;100.00
12785;BME280;6456;42.680;23.260;2023-05-14T05:16:52;95107.47;;;13.95;100.00
12785;BME280;6456;42.680;23.260;2023-05-14T05:19:19;95110.84;;;13.84;100.00
12785;BME280;6456;42.680;23.260;2023-05-14T05:21:47;95097.47;;;13.79;100.00
12785;BME280;6456;42.680;23.260;2023-05-14T05:24:15;95095.78;;;13.67;100.00
12785;BME280;6456;42.680;23.260;2023-05-14T05:26:42;95185.88;;;14.33;100.00
12785;BME280;6456;42.680;23.260;2023-05-14T05:29:09;95195.63;;;14.32;100.00
12785;BME280;6456;42.680;23.260;2023-05-14T05:31:36;95117.47;;;13.75;100.00
12785;BME280;6456;42.680;23.260;2023-05-14T05:34:03;95194.25;;;14.23;100.00
12785;BME280;6456;42.680;23.260;2023-05-14T05:36:30;95199.22;;;14.20;100.00
12785;BME280;6456;42.680;23.260;2023-05-14T05:38:58;95111.88;;;13.65;100.00
12785;BME280;6456;42.680;23.260;2023-05-14T05:41:25;95198.84;;;14.16;100.00
12785;BME280;6456;42.680;23.260;2023-05-14T05:43:52;95195.59;;;14.14;100.00
12785;BME280;6456;42.680;23.260;2023-05-14T05:46:18;95135.84;;;13.70;100.00
12785;BME280;6456;42.680;23.260;2023-05-14T05:48:45;95131.53;;;13.51;100.00
12785;BME280;6456;42.680;23.260;2023-05-14T05:51:12;95202.06;;;14.00;100.00
12785;BME280;6456;42.680;23.260;2023-05-14T05:53:39;95182.97;;;13.73;100.00
12785;BME280;6456;42.680;23.260;2023-05-14T05:56:09;95173.72;;;13.64;100.00
12785;BME280;6456;42.680;23.260;2023-05-14T05:58:37;95140.19;;;13.40;100.00
12785;BME280;6456;42.680;23.260;2023-05-14T06:01:04;95196.44;;;13.72;100.00
12785;BME280;6456;42.680;23.260;2023-05-14T06:03:32;95177.84;;;13.60;100.00
12785;BME280;6456;42.680;23.260;2023-05-14T06:05:58;95152.53;;;13.46;100.00
12785;BME280;6456;42.680;23.260;2023-05-14T06:08:25;95182.09;;;13.61;100.00
12785;BME280;6456;42.680;23.260;2023-05-14T06:10:52;95194.81;;;13.71;100.00
12785;BME280;6456;42.680;23.260;2023-05-14T06:13:20;95198.09;;;13.66;100.00
12785;BME280;6456;42.680;23.260;2023-05-14T06:15:47;95099.50;;;12.92;100.00
12785;BME280;6456;42.680;23.260;2023-05-14T06:18:14;95189.38;;;13.41;100.00
12785;BME280;6456;42.680;23.260;2023-05-14T06:20:40;95191.03;;;13.35;100.00
12785;BME280;6456;42.680;23.260;2023-05-14T06:23:07;95179.19;;;13.20;100.00
12785;BME280;6456;42.680;23.260;2023-05-14T06:25:36;95190.22;;;13.10;100.00
12785;BME280;6456;42.680;23.260;2023-05-14T06:28:03;95194.72;;;13.10;100.00
12785;BME280;6456;42.680;23.260;2023-05-14T06:30:31;95184.38;;;12.95;100.00
12785;BME280;6456;42.680;23.260;2023-05-14T06:32:58;95205.06;;;13.05;100.00
12785;BME280;6456;42.680;23.260;2023-05-14T06:35:25;95210.75;;;13.08;100.00
12785;BME280;6456;42.680;23.260;2023-05-14T06:37:52;95208.34;;;13.07;100.00
12785;BME280;6456;42.680;23.260;2023-05-14T06:40:19;95204.25;;;13.04;100.00
12785;BME280;6456;42.680;23.260;2023-05-14T06:42:46;95146.59;;;12.70;100.00
12785;BME280;6456;42.680;23.260;2023-05-14T06:45:12;95207.28;;;13.08;100.00
12785;BME280;6456;42.680;23.260;2023-05-14T06:47:40;95199.38;;;13.08;100.00
12785;BME280;6456;42.680;23.260;2023-05-14T06:50:08;95158.66;;;12.84;100.00
12785;BME280;6456;42.680;23.260;2023-05-14T06:52:35;95134.25;;;12.57;100.00
12785;BME280;6456;42.680;23.260;2023-05-14T06:55:03;95182.03;;;12.87;100.00
12785;BME280;6456;42.680;23.260;2023-05-14T06:57:29;95174.03;;;12.94;100.00
12785;BME280;6456;42.680;23.260;2023-05-14T06:59:58;95171.88;;;12.84;100.00
12785;BME280;6456;42.680;23.260;2023-05-14T07:02:25;95087.06;;;12.36;100.00
12785;BME280;6456;42.680;23.260;2023-05-14T07:04:53;95190.72;;;12.94;100.00
12785;BME280;6456;42.680;23.260;2023-05-14T07:07:20;95198.16;;;13.04;100.00
12785;BME280;6456;42.680;23.260;2023-05-14T07:09:47;95173.63;;;12.97;100.00
12785;BME280;6456;42.680;23.260;2023-05-14T07:12:13;95135.31;;;12.81;100.00
12785;BME280;6456;42.680;23.260;2023-05-14T07:14:40;95160.25;;;12.92;100.00
12785;BME280;6456;42.680;23.260;2023-05-14T07:17:07;95231.88;;;13.15;100.00
12785;BME280;6456;42.680;23.260;2023-05-14T07:19:34;95234.94;;;13.12;100.00
12785;BME280;6456;42.680;23.260;2023-05-14T07:22:03;95231.91;;;13.02;100.00
12785;BME280;6456;42.680;23.260;2023-05-14T07:24:29;95220.13;;;12.98;100.00
12785;BME280;6456;42.680;23.260;2023-05-14T07:26:56;95212.25;;;12.91;100.00
12785;BME280;6456;42.680;23.260;2023-05-14T07:29:23;95214.66;;;12.93;100.00
12785;BME280;6456;42.680;23.260;2023-05-14T07:31:50;95183.28;;;12.78;100.00
12785;BME280;6456;42.680;23.260;2023-05-14T07:34:17;95213.25;;;12.97;100.00
12785;BME280;6456;42.680;23.260;2023-05-14T07:36:45;95184.09;;;12.78;100.00
12785;BME280;6456;42.680;23.260;2023-05-14T07:39:13;95179.78;;;12.84;100.00
12785;BME280;6456;42.680;23.260;2023-05-14T07:41:40;95212.38;;;13.09;100.00
12785;BME280;6456;42.680;23.260;2023-05-14T07:44:07;95216.44;;;13.12;100.00
12785;BME280;6456;42.680;23.260;2023-05-14T07:46:34;95218.03;;;13.13;100.00
12785;BME280;6456;42.680;23.260;2023-05-14T07:49:01;95230.56;;;13.24;100.00
12785;BME280;6456;42.680;23.260;2023-05-14T07:51:28;95186.78;;;13.03;100.00
12785;BME280;6456;42.680;23.260;2023-05-14T07:53:56;95218.72;;;13.33;100.00
12785;BME280;6456;42.680;23.260;2023-05-14T07:56:24;95232.66;;;13.46;100.00
12785;BME280;6456;42.680;23.260;2023-05-14T07:58:51;95202.50;;;13.29;100.00
12785;BME280;6456;42.680;23.260;2023-05-14T08:01:17;95174.50;;;13.22;100.00
12785;BME280;6456;42.680;23.260;2023-05-14T08:03:45;95217.38;;;13.48;100.00
12785;BME280;6456;42.680;23.260;2023-05-14T08:06:12;95187.66;;;13.28;100.00
12785;BME280;6456;42.680;23.260;2023-05-14T08:08:38;95177.28;;;13.27;100.00
12785;BME280;6456;42.680;23.260;2023-05-14T08:11:07;95223.81;;;13.59;100.00
12785;BME280;6456;42.680;23.260;2023-05-14T08:13:35;95218.50;;;13.59;100.00
12785;BME280;6456;42.680;23.260;2023-05-14T08:16:03;95205.06;;;13.61;100.00
12785;BME280;6456;42.680;23.260;2023-05-14T08:18:30;95196.34;;;13.60;100.00
12785;BME280;6456;42.680;23.260;2023-05-14T08:20:57;95214.72;;;13.73;100.00
12785;BME280;6456;42.680;23.260;2023-05-14T08:23:24;95211.06;;;13.74;100.00
12785;BME280;6456;42.680;23.260;2023-05-14T08:25:50;95168.50;;;13.58;100.00
12785;BME280;6456;42.680;23.260;2023-05-14T08:28:17;95207.50;;;13.87;100.00
12785;BME280;6456;42.680;23.260;2023-05-14T08:30:45;95203.59;;;13.89;100.00
12785;BME280;6456;42.680;23.260;2023-05-14T08:33:12;95195.81;;;13.94;100.00
12785;BME280;6456;42.680;23.260;2023-05-14T08:35:39;95140.00;;;13.60;100.00
12785;BME280;6456;42.680;23.260;2023-05-14T08:38:06;95164.19;;;13.81;100.00
12785;BME280;6456;42.680;23.260;2023-05-14T08:40:32;95158.41;;;13.73;100.00
12785;BME280;6456;42.680;23.260;2023-05-14T08:42:59;95193.16;;;13.94;100.00
12785;BME280;6456;42.680;23.260;2023-05-14T08:45:28;95161.94;;;13.85;100.00
12785;BME280;6456;42.680;23.260;2023-05-14T08:48:00;95190.53;;;13.94;100.00
12785;BME280;6456;42.680;23.260;2023-05-14T08:50:30;95200.22;;;13.82;100.00
12785;BME280;6456;42.680;23.260;2023-05-14T08:52:57;95205.34;;;13.77;100.00
12785;BME280;6456;42.680;23.260;2023-05-14T08:55:25;95138.13;;;13.42;100.00
12785;BME280;6456;42.680;23.260;2023-05-14T08:57:52;95169.91;;;13.60;100.00
12785;BME280;6456;42.680;23.260;2023-05-14T09:00:20;95186.19;;;13.57;100.00
12785;BME280;6456;42.680;23.260;2023-05-14T09:02:48;95192.50;;;13.56;100.00
12785;BME280;6456;42.680;23.260;2023-05-14T09:05:18;95197.53;;;13.64;100.00
12785;BME280;6456;42.680;23.260;2023-05-14T09:07:45;95197.44;;;13.71;100.00
12785;BME280;6456;42.680;23.260;2023-05-14T09:10:12;95181.91;;;13.81;100.00
12785;BME280;6456;42.680;23.260;2023-05-14T09:12:40;95179.63;;;13.84;100.00
12785;BME280;6456;42.680;23.260;2023-05-14T09:15:07;95134.34;;;13.56;100.00
12785;BME280;6456;42.680;23.260;2023-05-14T09:17:34;95132.84;;;13.42;100.00
12785;BME280;6456;42.680;23.260;2023-05-14T09:20:01;95184.78;;;13.79;100.00
12785;BME280;6456;42.680;23.260;2023-05-14T09:22:30;95193.00;;;13.89;100.00
12785;BME280;6456;42.680;23.260;2023-05-14T09:25:02;95103.63;;;13.37;100.00
12785;BME280;6456;42.680;23.260;2023-05-14T09:27:29;95176.16;;;13.84;100.00
12785;BME280;6456;42.680;23.260;2023-05-14T09:30:04;95147.19;;;13.71;100.00
12785;BME280;6456;42.680;23.260;2023-05-14T09:32:35;95174.63;;;13.76;100.00
12785;BME280;6456;42.680;23.260;2023-05-14T09:35:09;95181.59;;;13.71;100.00
12785;BME280;6456;42.680;23.260;2023-05-14T09:37:40;95164.78;;;13.65;100.00
12785;BME280;6456;42.680;23.260;2023-05-14T09:40:07;95164.94;;;13.70;100.00
12785;BME280;6456;42.680;23.260;2023-05-14T09:42:34;95158.16;;;13.74;100.00
12785;BME280;6456;42.680;23.260;2023-05-14T09:45:02;95161.97;;;13.78;100.00
12785;BME280;6456;42.680;23.260;2023-05-14T09:47:29;95159.28;;;13.85;100.00
12785;BME280;6456;42.680;23.260;2023-05-14T09:49:56;95119.88;;;13.59;100.00
12785;BME280;6456;42.680;23.260;2023-05-14T09:52:25;95159.34;;;13.78;100.00
12785;BME280;6456;42.680;23.260;2023-05-14T09:54:53;95162.63;;;13.74;100.00
12785;BME280;6456;42.680;23.260;2023-05-14T09:57:20;95150.34;;;13.61;100.00
12785;BME280;6456;42.680;23.260;2023-05-14T09:59:47;95158.44;;;13.66;100.00
12785;BME280;6456;42.680;23.260;2023-05-14T10:02:21;95086.84;;;13.25;100.00
12785;BME280;6456;42.680;23.260;2023-05-14T10:04:59;95135.06;;;13.63;100.00
12785;BME280;6456;42.680;23.260;2023-05-14T10:07:30;95131.84;;;13.61;100.00
12785;BME280;6456;42.680;23.260;2023-05-14T10:10:02;95124.34;;;13.58;100.00
12785;BME280;6456;42.680;23.260;2023-05-14T10:12:32;95075.25;;;13.26;100.00
12785;BME280;6456;42.680;23.260;2023-05-14T10:15:02;95108.84;;;13.62;100.00
12785;BME280;6456;42.680;23.260;2023-05-14T10:17:31;95103.94;;;13.65;100.00
12785;BME280;6456;42.680;23.260;2023-05-14T10:20:01;95103.41;;;13.57;100.00
12785;BME280;6456;42.680;23.260;2023-05-14T10:22:32;95107.88;;;13.56;100.00
12785;BME280;6456;42.680;23.260;2023-05-14T10:25:02;95122.59;;;13.52;100.00
12785;BME280;6456;42.680;23.260;2023-05-14T10:27:29;95139.19;;;13.59;100.00
12785;BME280;6456;42.680;23.260;2023-05-14T10:29:56;95084.97;;;13.32;100.00
12785;BME280;6456;42.680;23.260;2023-05-14T10:32:24;95091.41;;;13.36;100.00
12785;BME280;6456;42.680;23.260;2023-05-14T10:34:52;95119.66;;;13.60;100.00
12785;BME280;6456;42.680;23.260;2023-05-14T10:37:21;95126.41;;;13.56;100.00
12785;BME280;6456;42.680;23.260;2023-05-14T10:39:49;95133.31;;;13.57;100.00
12785;BME280;6456;42.680;23.260;2023-05-14T10:42:21;95070.34;;;13.29;100.00
12785;BME280;6456;42.680;23.260;2023-05-14T10:44:51;95115.53;;;13.64;100.00
12785;BME280;6456;42.680;23.260;2023-05-14T10:47:20;95082.41;;;13.43;100.00
12785;BME280;6456;42.680;23.260;2023-05-14T10:49:48;95121.56;;;13.71;100.00
12785;BME280;6456;42.680;23.260;2023-05-14T10:52:16;95066.06;;;13.28;100.00
12785;BME280;6456;42.680;23.260;2023-05-14T10:54:51;95042.66;;;13.32;100.00
12785;BME280;6456;42.680;23.260;2023-05-14T10:57:25;95060.94;;;13.33;100.00
12785;BME280;6456;42.680;23.260;2023-05-14T10:59:54;95041.63;;;13.15;100.00
12785;BME280;6456;42.680;23.260;2023-05-14T11:02:23;95055.00;;;13.20;100.00
12785;BME280;6456;42.680;23.260;2023-05-14T11:04:58;95042.47;;;13.09;100.00
12785;BME280;6456;42.680;23.260;2023-05-14T11:07:29;95087.78;;;13.12;100.00
12785;BME280;6456;42.680;23.260;2023-05-14T11:10:01;95125.34;;;13.14;100.00
12785;BME280;6456;42.680;23.260;2023-05-14T11:12:30;95028.66;;;12.57;100.00
12785;BME280;6456;42.680;23.260;2023-05-14T11:14:59;95028.66;;;12.57;100.00
12785;BME280;6456;42.680;23.260;2023-05-14T11:17:27;95119.25;;;13.14;100.00
12785;BME280;6456;42.680;23.260;2023-05-14T11:19:54;95062.50;;;12.67;100.00
12785;BME280;6456;42.680;23.260;2023-05-14T11:22:23;95105.78;;;12.91;100.00
12785;BME280;6456;42.680;23.260;2023-05-14T11:24:51;95087.13;;;12.85;100.00
12785;BME280;6456;42.680;23.260;2023-05-14T11:27:20;95036.28;;;12.72;100.00
12785;BME280;6456;42.680;23.260;2023-05-14T11:29:49;95083.41;;;12.93;100.00
12785;BME280;6456;42.680;23.260;2023-05-14T11:32:18;95111.81;;;13.29;100.00
12785;BME280;6456;42.680;23.260;2023-05-14T11:34:45;95067.69;;;13.05;100.00
12785;BME280;6456;42.680;23.260;2023-05-14T11:37:13;95092.03;;;13.13;100.00
12785;BME280;6456;42.680;23.260;2023-05-14T11:39:46;95048.25;;;12.93;100.00
12785;BME280;6456;42.680;23.260;2023-05-14T11:42:13;95094.41;;;13.21;100.00
12785;BME280;6456;42.680;23.260;2023-05-14T11:44:44;95091.84;;;13.33;100.00
12785;BME280;6456;42.680;23.260;2023-05-14T11:47:12;95018.03;;;12.88;100.00
12785;BME280;6456;42.680;23.260;2023-05-14T11:49:39;95088.94;;;13.41;100.00
12785;BME280;6456;42.680;23.260;2023-05-14T11:52:07;95047.75;;;13.09;100.00
12785;BME280;6456;42.680;23.260;2023-05-14T11:54:36;95099.22;;;13.49;100.00
12785;BME280;6456;42.680;23.260;2023-05-14T12:00:40;94991.34;;;12.97;100.00
12785;BME280;6456;42.680;23.260;2023-05-14T12:07:32;95075.50;;;13.79;100.00
12785;BME280;6456;42.680;23.260;2023-05-14T12:10:00;95073.38;;;13.87;100.00
12785;BME280;6456;42.680;23.260;2023-05-14T12:12:33;94991.06;;;13.47;100.00
12785;BME280;6456;42.680;23.260;2023-05-14T12:15:00;95032.72;;;14.00;100.00
12785;BME280;6456;42.680;23.260;2023-05-14T12:17:27;94962.41;;;13.63;100.00
12785;BME280;6456;42.680;23.260;2023-05-14T12:19:55;95007.41;;;13.92;100.00
12785;BME280;6456;42.680;23.260;2023-05-14T12:22:22;95021.44;;;14.23;100.00
12785;BME280;6456;42.680;23.260;2023-05-14T12:24:54;94955.19;;;13.99;100.00
12785;BME280;6456;42.680;23.260;2023-05-14T12:27:22;94948.22;;;14.17;100.00
12785;BME280;6456;42.680;23.260;2023-05-14T12:29:50;94964.06;;;14.35;100.00
12785;BME280;6456;42.680;23.260;2023-05-14T12:32:18;95042.00;;;14.80;100.00
12785;BME280;6456;42.680;23.260;2023-05-14T12:34:45;95040.75;;;14.83;100.00
12785;BME280;6456;42.680;23.260;2023-05-14T12:37:12;95022.69;;;14.50;100.00
12785;BME280;6456;42.680;23.260;2023-05-14T12:39:39;94978.63;;;14.26;100.00
12785;BME280;6456;42.680;23.260;2023-05-14T12:42:07;94989.16;;;14.44;100.00
12785;BME280;6456;42.680;23.260;2023-05-14T12:44:34;94989.63;;;14.41;100.00
12785;BME280;6456;42.680;23.260;2023-05-14T12:47:01;95001.41;;;14.56;100.00
12785;BME280;6456;42.680;23.260;2023-05-14T12:49:28;94928.75;;;14.11;100.00
12785;BME280;6456;42.680;23.260;2023-05-14T12:51:54;95006.72;;;14.68;100.00
12785;BME280;6456;42.680;23.260;2023-05-14T12:54:21;94960.47;;;14.29;100.00
12785;BME280;6456;42.680;23.260;2023-05-14T12:56:48;94891.03;;;13.63;100.00
12785;BME280;6456;42.680;23.260;2023-05-14T12:59:17;94978.09;;;14.05;100.00
12785;BME280;6456;42.680;23.260;2023-05-14T13:01:43;94923.81;;;13.73;100.00
12785;BME280;6456;42.680;23.260;2023-05-14T13:04:10;94967.63;;;14.10;100.00
12785;BME280;6456;42.680;23.260;2023-05-14T13:06:38;95006.91;;;14.43;100.00